Stalldalen, Sweden

5:09 PM CEST on August 03, 2015 (GMT +0200)
resident area | | Change Station
CLOSE
Current Station
Personal Weather Station
Location: Ludvika, DALARNAS LäN
Elevation: 584 ft
Nearby Weather Stations

Elev 584 ft 60.13 °N, 15.18 °E | Updated 9 minutes ago

Partly Cloudy
Partly Cloudy
72.1 °F
Feels Like 77 °F
N
2.2
Wind Variable Wind from South
Gusts 6.9 mph

Today
High -- | Low -- °F
--% Chance of Precip.
Yesterday
High -- | Low -- °F
Precip. -- in
4:44 AM 9:26 PM
Waning Gibbous, 86% visible
Pressure 30.15 in
Visibility 6.2 miles
Clouds Few 4700 ft
Heat Index 77 °F
Dew Point 48 °F
Humidity 43%
Rainfall 0.00 in
Snow Depth Not available.
UV 3 out of 12
Pollen Not available.
Air Quality Not available.
Flu Activity Not available.
METAR ESOE 031450Z 29005KT 250V320 9999 FEW047 20/10 Q1021

More Conditions Fewer Conditions

Pressure 30.15 in
Visibility 6.2 miles
Clouds Few 4700 ft
Heat Index 77 °F
Dew Point 48 °F
Humidity 43%
Rainfall 0.00 in
Snow Depth Not available.
UV 3 out of 12
Pollen Not available.
Air Quality Not available.
Flu Activity Not available.
METAR ESOE 031450Z 29005KT 250V320 9999 FEW047 20/10 Q1021

More Conditions Fewer Conditions

10-Day Weather Forecast

×

Almanac

Astronomy

Aug. 03, 2015 Rise Set
Actual Time
Civil Twilight
Nautical Twilight
Astronomical Twilight
Moon
Length of Visible Light
Length of Day
Tomorrow will be .
, % of the Moon is Illuminated

Today's Extremes

Country Highs Country Lows

Community

WunderPhotos

Upload Photos

1,843,633 photos uploaded!

WunderBlogs® & News

Nearby

Air Quality

  Air Quality AQ Index Pollutant
Not available.

Snow Depth

Station Depth Elevation

Earthquake Activity

City Distance Mag. Time & Date
Minimum magnitude displayed is 2.5.

Coastal Water Temperatures

Place Temperature

Stations

Nearby Weather Stations

Station Location Temp. Windchill Dew Point Humidity Wind Precip. Elev Updated Type